createdAt,value
2018-02-03T00:00:22.254Z,11.30
2018-02-03T00:01:22.364Z,11.20
2018-02-03T00:02:22.196Z,11.50
2018-02-03T00:03:22.275Z,9.90
2018-02-03T00:04:22.138Z,11.80
2018-02-03T00:05:22.291Z,11.20
2018-02-03T00:06:22.079Z,10.50
2018-02-03T00:07:22.201Z,11.90
2018-02-03T00:08:22.025Z,11.40
2018-02-03T00:09:22.126Z,14.40
2018-02-03T00:10:21.965Z,12.60
2018-02-03T00:11:22.176Z,11.20
2018-02-03T00:12:21.908Z,12.50
2018-02-03T00:13:22.050Z,12.50
2018-02-03T00:14:21.849Z,11.00
2018-02-03T00:15:21.948Z,12.50
2018-02-03T00:16:21.788Z,10.00
2018-02-03T00:17:21.961Z,12.10
2018-02-03T00:18:21.733Z,11.60
2018-02-03T00:19:21.883Z,8.60
2018-02-03T00:20:21.675Z,13.10
2018-02-03T00:21:21.790Z,12.50
2018-02-03T00:22:21.617Z,11.80
2018-02-03T00:23:21.696Z,13.90
2018-02-03T00:24:21.560Z,12.90
2018-02-03T00:25:21.710Z,9.80
2018-02-03T00:26:21.501Z,12.30
2018-02-03T00:27:21.626Z,13.70
2018-02-03T00:28:21.443Z,11.00
2018-02-03T00:29:21.537Z,12.80
2018-02-03T00:30:21.386Z,12.80
2018-02-03T00:31:21.546Z,11.30
2018-02-03T00:32:21.327Z,9.10
2018-02-03T00:33:21.472Z,12.70
2018-02-03T00:34:21.273Z,13.00
2018-02-03T00:35:21.374Z,13.00
2018-02-03T00:36:21.211Z,12.20
2018-02-03T00:37:21.388Z,14.00
2018-02-03T00:38:21.148Z,11.80
2018-02-03T00:39:21.345Z,12.20
2018-02-03T00:40:21.111Z,13.10
2018-02-03T00:41:21.207Z,10.60
2018-02-03T00:42:21.036Z,12.30
2018-02-03T00:43:21.221Z,12.40
2018-02-03T00:44:20.977Z,10.70
2018-02-03T00:45:21.131Z,12.00
2018-02-03T00:46:20.925Z,11.90
2018-02-03T00:47:21.044Z,10.90
2018-02-03T00:48:20.864Z,9.20
2018-02-03T00:49:20.957Z,10.40
2018-02-03T00:50:20.803Z,9.30
2018-02-03T00:51:20.970Z,11.40
2018-02-03T00:52:20.747Z,9.60
2018-02-03T00:53:20.776Z,11.20
2018-02-03T00:54:20.691Z,11.10
2018-02-03T00:55:20.738Z,12.40
2018-02-03T00:56:20.634Z,15.50
2018-02-03T00:57:20.909Z,12.80
2018-02-03T00:58:20.573Z,12.40
2018-02-03T00:59:20.616Z,14.20
2018-02-03T01:00:20.517Z,13.60
2018-02-03T01:01:20.526Z,12.70
2018-02-03T01:02:20.454Z,12.30
2018-02-03T01:03:20.428Z,13.90
2018-02-03T01:04:20.443Z,13.20
2018-02-03T01:05:20.370Z,11.60
2018-02-03T01:06:20.357Z,14.10
2018-02-03T01:07:20.311Z,12.40
2018-02-03T01:08:20.372Z,11.40
2018-02-03T01:09:20.260Z,10.30
2018-02-03T01:10:20.284Z,14.10
2018-02-03T01:11:20.208Z,11.00
2018-02-03T01:12:20.193Z,12.80
2018-02-03T01:13:20.136Z,11.00
2018-02-03T01:14:20.209Z,14.10
2018-02-03T01:15:20.082Z,12.70
2018-02-03T01:16:20.119Z,12.60
2018-02-03T01:17:20.023Z,12.10
2018-02-03T01:18:20.032Z,13.10
2018-02-03T01:19:19.963Z,11.70
2018-02-03T01:20:20.046Z,17.40
2018-02-03T01:21:19.909Z,12.00
2018-02-03T01:22:19.957Z,12.40
2018-02-03T01:23:19.849Z,10.50
2018-02-03T01:24:19.869Z,11.00
2018-02-03T01:25:19.793Z,14.30
2018-02-03T01:26:19.778Z,11.80
2018-02-03T01:27:19.730Z,14.90
2018-02-03T01:28:19.785Z,12.40
2018-02-03T01:29:19.675Z,13.50
2018-02-03T01:30:19.705Z,13.80
2018-02-03T01:31:19.617Z,13.70
2018-02-03T01:32:19.616Z,12.30
2018-02-03T01:33:19.559Z,11.30
2018-02-03T01:34:19.630Z,13.60
2018-02-03T01:35:19.493Z,12.60
2018-02-03T01:36:19.542Z,12.20
2018-02-03T01:37:19.454Z,11.80
2018-02-03T01:38:19.453Z,13.80
2018-02-03T01:39:19.378Z,15.50
2018-02-03T01:40:19.467Z,14.30
2018-02-03T01:41:19.326Z,15.90
2018-02-03T01:42:19.380Z,13.70
2018-02-03T01:43:19.266Z,13.40
2018-02-03T01:44:19.290Z,15.60
2018-02-03T01:45:19.211Z,12.90
2018-02-03T01:46:19.214Z,14.30
2018-02-03T01:47:19.150Z,14.40
2018-02-03T01:48:19.215Z,12.60
2018-02-03T01:49:19.102Z,10.70
2018-02-03T01:50:19.128Z,12.30
2018-02-03T01:51:19.033Z,16.60
2018-02-03T01:52:19.038Z,13.70
2018-02-03T01:53:18.974Z,12.90
2018-02-03T01:54:19.052Z,12.60
2018-02-03T01:55:18.938Z,16.10
2018-02-03T01:56:18.964Z,12.10
2018-02-03T01:57:18.858Z,11.20
2018-02-03T01:58:18.875Z,13.00
2018-02-03T01:59:18.799Z,11.30
2018-02-03T02:00:18.787Z,13.20
2018-02-03T02:01:18.740Z,14.10
2018-02-03T02:02:18.802Z,13.50
2018-02-03T02:03:18.684Z,11.90
2018-02-03T02:04:18.712Z,14.00
2018-02-03T02:05:18.623Z,11.40
2018-02-03T02:06:18.624Z,15.60
2018-02-03T02:07:18.563Z,11.60
2018-02-03T02:08:18.638Z,11.50
2018-02-03T02:09:18.508Z,13.60
2018-02-03T02:10:18.577Z,14.40
2018-02-03T02:11:18.452Z,11.70
2018-02-03T02:12:18.455Z,10.40
2018-02-03T02:13:18.393Z,11.00
2018-02-03T02:14:18.372Z,14.10
2018-02-03T02:15:18.336Z,13.40
2018-02-03T02:16:18.387Z,13.60
2018-02-03T02:17:18.274Z,11.20
2018-02-03T02:18:18.297Z,12.40
2018-02-03T02:19:18.214Z,14.20
2018-02-03T02:20:18.213Z,12.90
2018-02-03T02:21:18.158Z,13.40
2018-02-03T02:22:18.226Z,11.90
2018-02-03T02:23:18.096Z,11.70
2018-02-03T02:24:18.137Z,14.10
2018-02-03T02:25:18.040Z,12.00
2018-02-03T02:26:18.046Z,9.90
2018-02-03T02:27:17.980Z,11.40
2018-02-03T02:28:18.061Z,14.00
2018-02-03T02:29:17.928Z,13.60
2018-02-03T02:30:17.974Z,11.40
2018-02-03T02:31:17.872Z,15.20
2018-02-03T02:32:17.883Z,13.80
2018-02-03T02:33:17.806Z,15.10
2018-02-03T02:34:17.796Z,15.80
2018-02-03T02:35:17.746Z,13.80
2018-02-03T02:36:17.810Z,12.10
2018-02-03T02:37:17.689Z,14.90
2018-02-03T02:38:17.722Z,15.50
2018-02-03T02:39:17.630Z,14.30
2018-02-03T02:40:17.632Z,12.70
2018-02-03T02:41:17.582Z,16.70
2018-02-03T02:42:17.647Z,15.20
2018-02-03T02:43:17.512Z,14.50
2018-02-03T02:44:17.557Z,14.40
2018-02-03T02:45:17.460Z,14.10
2018-02-03T02:46:17.467Z,15.00
2018-02-03T02:47:17.393Z,16.00
2018-02-03T02:48:17.381Z,16.20
2018-02-03T02:49:17.338Z,17.40
2018-02-03T02:50:17.396Z,13.30
2018-02-03T02:51:17.279Z,14.00
2018-02-03T02:52:17.308Z,13.60
2018-02-03T02:53:17.223Z,15.70
2018-02-03T02:54:17.221Z,12.60
2018-02-03T02:55:17.165Z,13.60
2018-02-03T02:56:17.245Z,14.60
2018-02-03T02:57:17.109Z,15.60
2018-02-03T02:58:17.142Z,15.60
2018-02-03T02:59:17.044Z,17.50
2018-02-03T03:00:17.055Z,17.50
2018-02-03T03:01:16.981Z,16.40
2018-02-03T03:02:17.068Z,16.00
2018-02-03T03:03:16.943Z,13.40
2018-02-03T03:04:16.981Z,15.70
2018-02-03T03:05:16.869Z,15.80
2018-02-03T03:06:16.890Z,17.20
2018-02-03T03:07:16.806Z,13.40
2018-02-03T03:08:16.803Z,13.60
2018-02-03T03:09:16.752Z,18.90
2018-02-03T03:10:16.817Z,15.80
2018-02-03T03:11:16.694Z,18.00
2018-02-03T03:12:16.728Z,17.50
2018-02-03T03:13:16.634Z,16.50
2018-02-03T03:14:16.630Z,18.50
2018-02-03T03:15:16.577Z,16.20
2018-02-03T03:16:16.653Z,14.50
2018-02-03T03:17:16.517Z,16.90
2018-02-03T03:18:16.564Z,17.20
2018-02-03T03:19:16.455Z,13.40
2018-02-03T03:20:16.477Z,16.20
2018-02-03T03:21:16.386Z,17.40
2018-02-03T03:22:16.383Z,14.70
2018-02-03T03:23:16.350Z,18.70
2018-02-03T03:24:16.403Z,13.50
2018-02-03T03:25:16.280Z,15.80
2018-02-03T03:26:16.316Z,15.80
2018-02-03T03:27:16.224Z,14.40
2018-02-03T03:28:16.225Z,19.90
2018-02-03T03:29:16.161Z,12.90
2018-02-03T03:30:16.240Z,17.30
2018-02-03T03:31:16.103Z,18.20
2018-02-03T03:32:16.150Z,17.00
2018-02-03T03:33:16.042Z,16.30
2018-02-03T03:34:16.061Z,11.70
2018-02-03T03:35:15.985Z,17.30
2018-02-03T03:36:15.973Z,15.30
2018-02-03T03:37:15.926Z,18.10
2018-02-03T03:38:15.983Z,13.50
2018-02-03T03:39:15.862Z,16.90
2018-02-03T03:40:15.899Z,14.60
2018-02-03T03:41:15.807Z,19.10
2018-02-03T03:42:15.812Z,15.20
2018-02-03T03:43:15.747Z,18.80
2018-02-03T03:44:15.824Z,21.40
2018-02-03T03:45:15.704Z,14.50
2018-02-03T03:46:15.741Z,14.60
2018-02-03T03:47:15.629Z,17.50
2018-02-03T03:48:15.652Z,16.60
2018-02-03T03:49:15.572Z,14.20
2018-02-03T03:50:15.581Z,14.30
2018-02-03T03:51:15.511Z,13.50
2018-02-03T03:52:15.599Z,12.00
2018-02-03T03:53:15.453Z,14.90
2018-02-03T03:54:15.491Z,16.60
2018-02-03T03:55:15.392Z,15.00
2018-02-03T03:56:15.399Z,15.90
2018-02-03T03:57:15.333Z,19.30
2018-02-03T03:58:15.418Z,15.80
2018-02-03T03:59:15.275Z,12.50
2018-02-03T04:00:15.323Z,16.80
2018-02-03T04:01:15.217Z,15.80
2018-02-03T04:02:15.233Z,15.60
2018-02-03T04:03:15.149Z,14.80
2018-02-03T04:04:15.196Z,15.20
2018-02-03T04:05:15.097Z,12.70
2018-02-03T04:06:15.160Z,14.40
2018-02-03T04:07:15.034Z,14.10
2018-02-03T04:08:15.073Z,14.90
2018-02-03T04:09:14.978Z,14.70
2018-02-03T04:10:14.982Z,13.60
2018-02-03T04:11:14.919Z,14.40
2018-02-03T04:12:14.996Z,12.90
2018-02-03T04:13:14.858Z,15.40
2018-02-03T04:14:14.910Z,15.50
2018-02-03T04:15:14.802Z,15.60
2018-02-03T04:16:14.831Z,17.20
2018-02-03T04:17:14.745Z,16.40
2018-02-03T04:18:14.731Z,18.10
2018-02-03T04:19:14.681Z,14.20
2018-02-03T04:20:14.742Z,15.20
2018-02-03T04:21:14.633Z,14.00
2018-02-03T04:22:14.655Z,13.40
2018-02-03T04:23:14.555Z,15.00
2018-02-03T04:24:14.565Z,13.10
2018-02-03T04:25:14.503Z,15.10
2018-02-03T04:26:14.580Z,16.70
2018-02-03T04:27:14.446Z,18.40
2018-02-03T04:28:14.494Z,15.60
2018-02-03T04:29:14.386Z,16.00
2018-02-03T04:30:14.403Z,15.20
2018-02-03T04:31:14.328Z,16.70
2018-02-03T04:32:14.314Z,18.70
2018-02-03T04:33:14.265Z,20.70
2018-02-03T04:34:14.330Z,16.10
2018-02-03T04:35:14.207Z,17.70
2018-02-03T04:36:14.250Z,21.70
2018-02-03T04:37:14.148Z,14.70
2018-02-03T04:38:14.154Z,16.70
2018-02-03T04:39:14.090Z,14.80
2018-02-03T04:40:14.167Z,17.20
2018-02-03T04:41:14.030Z,19.00
2018-02-03T04:42:14.079Z,15.60
2018-02-03T04:43:13.961Z,15.60
2018-02-03T04:44:13.990Z,18.10
2018-02-03T04:45:13.942Z,16.70
2018-02-03T04:46:13.902Z,16.80
2018-02-03T04:47:13.854Z,15.00
2018-02-03T04:48:13.916Z,16.80
2018-02-03T04:49:13.793Z,15.80
2018-02-03T04:50:13.824Z,15.40
2018-02-03T04:51:13.732Z,17.90
2018-02-03T04:52:13.737Z,16.90
2018-02-03T04:53:13.673Z,18.80
2018-02-03T04:54:13.753Z,18.30
2018-02-03T04:55:13.616Z,17.00
2018-02-03T04:56:13.663Z,16.90
2018-02-03T04:57:13.555Z,17.50
2018-02-03T04:58:13.585Z,18.50
2018-02-03T04:59:13.497Z,17.20
2018-02-03T05:00:13.505Z,18.80
2018-02-03T05:01:13.437Z,19.20
2018-02-03T05:02:13.505Z,17.60
2018-02-03T05:03:13.381Z,19.60
2018-02-03T05:04:13.414Z,18.30
2018-02-03T05:05:13.314Z,21.90
2018-02-03T05:06:13.327Z,15.70
2018-02-03T05:07:13.258Z,17.30
2018-02-03T05:08:13.340Z,18.60
2018-02-03T05:09:13.202Z,20.80
2018-02-03T05:10:13.250Z,18.60
2018-02-03T05:11:13.139Z,19.70
2018-02-03T05:12:13.158Z,18.30
2018-02-03T05:13:13.081Z,20.30
2018-02-03T05:14:13.072Z,21.00
2018-02-03T05:15:13.021Z,22.00
2018-02-03T05:16:13.088Z,20.50
2018-02-03T05:17:12.960Z,19.80
2018-02-03T05:18:12.986Z,21.40
2018-02-03T05:19:12.903Z,19.60
2018-02-03T05:20:12.911Z,20.60
2018-02-03T05:21:12.842Z,20.40
2018-02-03T05:22:12.922Z,23.40
2018-02-03T05:23:12.782Z,20.90
2018-02-03T05:24:12.838Z,22.30
2018-02-03T05:25:12.724Z,21.20
2018-02-03T05:26:12.748Z,21.90
2018-02-03T05:27:12.662Z,20.10
2018-02-03T05:28:12.655Z,20.00
2018-02-03T05:29:12.603Z,20.70
2018-02-03T05:30:12.676Z,22.80
2018-02-03T05:31:12.542Z,22.60
2018-02-03T05:32:12.581Z,19.50
2018-02-03T05:33:12.484Z,23.40
2018-02-03T05:34:12.494Z,21.60
2018-02-03T05:35:12.422Z,23.00
2018-02-03T05:36:12.509Z,22.70
2018-02-03T05:37:12.397Z,22.00
2018-02-03T05:38:12.421Z,22.50
2018-02-03T05:39:12.304Z,21.90
2018-02-03T05:40:12.325Z,21.70
2018-02-03T05:41:12.242Z,21.20
2018-02-03T05:42:12.241Z,21.20
2018-02-03T05:43:12.182Z,22.90
2018-02-03T05:44:12.258Z,22.00
2018-02-03T05:45:12.123Z,21.60
2018-02-03T05:46:12.165Z,20.00
2018-02-03T05:47:12.065Z,20.40
2018-02-03T05:48:12.081Z,25.30
2018-02-03T05:49:12.009Z,23.90
2018-02-03T05:50:11.991Z,26.20
2018-02-03T05:51:11.943Z,20.30
2018-02-03T05:52:12.004Z,22.20
2018-02-03T05:53:11.881Z,25.40
2018-02-03T05:54:11.917Z,20.60
2018-02-03T05:55:11.820Z,26.00
2018-02-03T05:56:11.827Z,23.90
2018-02-03T05:57:11.759Z,24.60
2018-02-03T05:58:11.844Z,21.10
2018-02-03T05:59:11.699Z,22.20
2018-02-03T06:00:11.769Z,21.10
2018-02-03T06:01:11.640Z,23.60
2018-02-03T06:02:11.670Z,23.80
2018-02-03T06:03:11.584Z,22.50
2018-02-03T06:04:11.580Z,20.40
2018-02-03T06:05:11.519Z,20.20
2018-02-03T06:06:11.591Z,20.90
2018-02-03T06:07:11.460Z,21.70
2018-02-03T06:08:11.503Z,20.50
2018-02-03T06:09:11.406Z,21.20
2018-02-03T06:10:11.413Z,20.50
2018-02-03T06:11:11.336Z,20.70
2018-02-03T06:12:11.325Z,21.30
2018-02-03T06:13:11.280Z,24.40
2018-02-03T06:14:11.342Z,24.30
2018-02-03T06:15:11.219Z,27.40
2018-02-03T06:16:11.250Z,21.40
2018-02-03T06:17:11.167Z,23.90
2018-02-03T06:18:11.161Z,21.60
2018-02-03T06:19:11.098Z,23.30
2018-02-03T06:20:11.174Z,22.40
2018-02-03T06:21:11.040Z,24.80
2018-02-03T06:22:11.089Z,26.70
2018-02-03T06:23:10.976Z,24.20
2018-02-03T06:24:10.998Z,26.70
2018-02-03T06:25:10.921Z,21.70
2018-02-03T06:26:10.907Z,25.30
2018-02-03T06:27:10.905Z,28.50
2018-02-03T06:28:10.924Z,23.10
2018-02-03T06:29:10.795Z,27.10
2018-02-03T06:30:10.833Z,28.20
2018-02-03T06:31:10.738Z,26.30
2018-02-03T06:32:10.748Z,22.50
2018-02-03T06:33:10.675Z,29.50
2018-02-03T06:34:10.656Z,28.40
2018-02-03T06:35:10.614Z,25.20
2018-02-03T06:36:10.671Z,23.30
2018-02-03T06:37:10.556Z,26.60
2018-02-03T06:38:10.582Z,26.00
2018-02-03T06:39:10.494Z,24.50
2018-02-03T06:40:10.488Z,28.30
2018-02-03T06:41:10.443Z,25.70
2018-02-03T06:42:10.511Z,25.90
2018-02-03T06:43:10.371Z,24.30
2018-02-03T06:44:10.420Z,28.50
2018-02-03T06:45:10.311Z,27.50
2018-02-03T06:46:10.330Z,28.40
2018-02-03T06:47:10.249Z,25.50
2018-02-03T06:48:10.243Z,30.50
2018-02-03T06:49:10.182Z,28.00
2018-02-03T06:50:10.260Z,24.80
2018-02-03T06:51:10.129Z,32.00
2018-02-03T06:52:10.167Z,27.30
2018-02-03T06:53:10.068Z,28.30
2018-02-03T06:54:10.079Z,30.00
2018-02-03T06:55:10.006Z,27.30
2018-02-03T06:56:10.094Z,30.20
2018-02-03T06:57:09.950Z,31.40
2018-02-03T06:58:10.005Z,35.50
2018-02-03T06:59:09.884Z,29.40
2018-02-03T07:00:09.916Z,31.90
2018-02-03T07:01:09.827Z,31.60
2018-02-03T07:02:09.835Z,33.40
2018-02-03T07:03:09.764Z,36.70
2018-02-03T07:04:09.836Z,35.90
2018-02-03T07:05:09.705Z,35.40
2018-02-03T07:06:09.753Z,37.60
2018-02-03T07:07:09.644Z,35.40
2018-02-03T07:08:10.755Z,35.90
2018-02-03T07:09:09.578Z,37.30
2018-02-03T07:10:09.576Z,32.80
2018-02-03T07:11:09.519Z,33.00
2018-02-03T07:12:09.589Z,34.40
2018-02-03T07:13:09.461Z,42.10
2018-02-03T07:14:09.502Z,36.50
2018-02-03T07:15:09.397Z,36.30
2018-02-03T07:16:09.412Z,35.60
2018-02-03T07:17:09.337Z,44.30
2018-02-03T07:18:09.425Z,45.40
2018-02-03T07:19:09.274Z,45.50
2018-02-03T07:20:09.338Z,65.60
2018-02-03T07:21:09.214Z,65.70
2018-02-03T07:22:09.243Z,64.00
2018-02-03T07:23:09.150Z,91.20
2018-02-03T07:24:09.161Z,85.70
2018-02-03T07:25:09.089Z,80.50
2018-02-03T07:26:09.074Z,82.80
2018-02-03T07:27:09.033Z,126.10
2018-02-03T07:28:09.085Z,97.00
2018-02-03T07:29:08.972Z,119.00
2018-02-03T07:30:08.998Z,129.40
2018-02-03T07:31:08.916Z,129.40
2018-02-03T07:32:08.924Z,142.70
2018-02-03T07:33:08.846Z,167.80
2018-02-03T07:34:08.923Z,128.60
2018-02-03T07:35:08.782Z,125.70
2018-02-03T07:36:08.832Z,176.70
2018-02-03T07:37:08.719Z,166.00
2018-02-03T07:38:08.747Z,126.20
2018-02-03T07:39:08.657Z,123.30
2018-02-03T07:40:08.658Z,107.20
2018-02-03T07:41:08.597Z,130.40
2018-02-03T07:42:08.689Z,114.50
2018-02-03T07:43:08.535Z,108.00
2018-02-03T07:44:08.582Z,97.90
2018-02-03T07:45:08.471Z,80.60
2018-02-03T07:46:08.494Z,67.40
2018-02-03T07:47:08.408Z,78.50
2018-02-03T07:48:08.407Z,65.90
2018-02-03T07:49:08.336Z,57.80
2018-02-03T07:50:08.430Z,61.60
2018-02-03T07:51:08.291Z,60.30
2018-02-03T07:52:08.335Z,55.50
2018-02-03T07:53:08.224Z,54.10
2018-02-03T07:54:08.245Z,59.10
2018-02-03T07:55:08.159Z,53.80
2018-02-03T07:56:08.158Z,56.50
2018-02-03T07:57:08.096Z,59.10
2018-02-03T07:58:08.174Z,55.50
2018-02-03T07:59:08.035Z,56.60
2018-02-03T08:00:08.081Z,61.50
2018-02-03T08:01:07.973Z,63.20
2018-02-03T08:02:07.998Z,60.40
2018-02-03T08:03:07.911Z,58.50
2018-02-03T08:04:07.905Z,57.50
2018-02-03T08:05:07.852Z,58.40
2018-02-03T08:06:07.918Z,56.00
2018-02-03T08:07:07.794Z,59.30
2018-02-03T08:08:07.829Z,54.10
2018-02-03T08:09:07.718Z,56.90
2018-02-03T08:10:07.741Z,55.30
2018-02-03T08:11:07.661Z,58.50
2018-02-03T08:12:07.659Z,51.00
2018-02-03T08:13:07.602Z,50.00
2018-02-03T08:14:07.677Z,51.00
2018-02-03T08:15:07.549Z,50.60
2018-02-03T08:16:07.578Z,50.60
2018-02-03T08:17:07.477Z,52.10
2018-02-03T08:18:07.490Z,50.60
2018-02-03T08:19:07.419Z,51.90
2018-02-03T08:20:07.398Z,50.60
2018-02-03T08:21:07.357Z,44.50
2018-02-03T08:22:07.410Z,45.30
2018-02-03T08:23:07.285Z,45.90
2018-02-03T08:24:07.324Z,44.30
2018-02-03T08:25:07.233Z,44.80
2018-02-03T08:26:07.238Z,48.10
2018-02-03T08:27:07.171Z,42.30
2018-02-03T08:28:07.251Z,44.90
2018-02-03T08:29:07.111Z,41.40
2018-02-03T08:30:07.163Z,42.50
2018-02-03T08:31:07.066Z,38.80
2018-02-03T08:32:07.076Z,42.00
2018-02-03T08:33:06.988Z,44.90
2018-02-03T08:34:06.987Z,43.70
2018-02-03T08:35:06.928Z,44.80
2018-02-03T08:36:06.999Z,43.70
2018-02-03T08:37:06.865Z,42.70
2018-02-03T08:38:06.912Z,42.00
2018-02-03T08:39:06.807Z,43.50
2018-02-03T08:40:06.823Z,40.40
2018-02-03T08:41:06.745Z,39.20
2018-02-03T08:42:06.738Z,41.00
2018-02-03T08:43:06.681Z,40.80
2018-02-03T08:44:06.744Z,38.80
2018-02-03T08:45:06.624Z,36.50
2018-02-03T08:46:06.657Z,38.20
2018-02-03T08:47:06.561Z,37.90
2018-02-03T08:48:06.565Z,41.80
2018-02-03T08:49:06.495Z,32.60
2018-02-03T08:50:06.483Z,34.30
2018-02-03T08:51:06.449Z,42.20
2018-02-03T08:52:06.500Z,35.90
2018-02-03T08:53:06.375Z,35.10
2018-02-03T08:54:06.409Z,35.10
2018-02-03T08:55:06.335Z,35.00
2018-02-03T08:56:06.317Z,35.50
2018-02-03T08:57:06.259Z,36.80
2018-02-03T08:58:06.334Z,39.40
2018-02-03T08:59:06.197Z,35.60
2018-02-03T09:00:06.245Z,33.90
2018-02-03T09:01:06.133Z,36.10
2018-02-03T09:02:06.152Z,34.60
2018-02-03T09:03:06.072Z,35.80
2018-02-03T09:04:06.060Z,34.60
2018-02-03T09:05:06.015Z,36.10
2018-02-03T09:06:06.081Z,36.80
2018-02-03T09:07:05.953Z,36.10
2018-02-03T09:08:05.995Z,32.20
2018-02-03T09:09:05.895Z,37.70
2018-02-03T09:10:05.904Z,36.00
2018-02-03T09:11:05.824Z,36.90
2018-02-03T09:12:05.814Z,38.90
2018-02-03T09:13:05.768Z,34.90
2018-02-03T09:14:05.832Z,38.60
2018-02-03T09:15:05.715Z,37.20
2018-02-03T09:16:05.747Z,39.50
2018-02-03T09:17:05.650Z,38.00
2018-02-03T09:18:05.651Z,32.80
2018-02-03T09:19:05.586Z,38.80
2018-02-03T09:20:05.668Z,36.70
2018-02-03T09:21:05.529Z,42.90
2018-02-03T09:22:05.579Z,35.00
2018-02-03T09:23:05.468Z,34.40
2018-02-03T09:24:05.483Z,38.30
2018-02-03T09:25:05.407Z,36.00
2018-02-03T09:26:05.398Z,33.90
2018-02-03T09:27:05.348Z,38.20
2018-02-03T09:28:05.417Z,34.50
2018-02-03T09:29:05.337Z,34.80
2018-02-03T09:30:05.326Z,32.60
2018-02-03T09:31:05.233Z,36.90
2018-02-03T09:32:05.240Z,35.90
2018-02-03T09:33:05.178Z,31.90
2018-02-03T09:34:05.253Z,35.00
2018-02-03T09:35:05.113Z,34.70
2018-02-03T09:36:05.165Z,35.00
2018-02-03T09:37:05.056Z,28.70
2018-02-03T09:38:05.075Z,29.50
2018-02-03T09:39:05.008Z,30.00
2018-02-03T09:40:05.089Z,29.30
2018-02-03T09:41:04.956Z,29.30
2018-02-03T09:42:05.001Z,32.50
2018-02-03T09:43:04.905Z,28.20
2018-02-03T09:44:04.926Z,26.50
2018-02-03T09:45:04.858Z,26.30
2018-02-03T09:46:04.925Z,28.00
2018-02-03T09:47:04.813Z,27.20
2018-02-03T09:48:04.941Z,23.30
2018-02-03T09:49:04.773Z,26.60
2018-02-03T09:50:04.846Z,26.30
2018-02-03T09:51:04.727Z,23.70
2018-02-03T09:52:04.709Z,24.70
2018-02-03T09:53:04.700Z,22.10
2018-02-03T09:54:04.778Z,23.20
2018-02-03T09:55:04.653Z,24.00
2018-02-03T09:56:04.687Z,23.00
2018-02-03T09:57:04.614Z,23.90
2018-02-03T09:58:04.703Z,23.80
2018-02-03T09:59:04.574Z,22.80
2018-02-03T10:00:04.612Z,27.00
2018-02-03T10:01:04.535Z,25.10
2018-02-03T10:02:04.630Z,23.00
2018-02-03T10:03:04.513Z,24.60
2018-02-03T10:04:04.537Z,28.40
2018-02-03T10:05:04.465Z,22.90
2018-02-03T10:06:04.558Z,22.20
2018-02-03T10:07:04.427Z,23.60
2018-02-03T10:08:04.469Z,24.60
2018-02-03T10:09:04.395Z,23.50
2018-02-03T10:10:04.480Z,27.20
2018-02-03T10:11:04.347Z,26.50
2018-02-03T10:12:04.391Z,26.80
2018-02-03T10:13:04.308Z,24.50
2018-02-03T10:14:04.302Z,22.40
2018-02-03T10:15:04.324Z,22.20
2018-02-03T10:16:04.317Z,25.50
2018-02-03T10:17:04.223Z,27.60
2018-02-03T10:18:04.228Z,26.30
2018-02-03T10:19:04.179Z,28.00
2018-02-03T10:20:04.240Z,24.50
2018-02-03T10:21:04.134Z,24.10
2018-02-03T10:22:04.150Z,28.00
2018-02-03T10:23:04.104Z,25.80
2018-02-03T10:24:04.172Z,22.60
2018-02-03T10:25:04.045Z,23.30
2018-02-03T10:26:04.078Z,26.80
2018-02-03T10:27:03.997Z,23.20
2018-02-03T10:28:03.992Z,26.00
2018-02-03T10:29:03.953Z,23.80
2018-02-03T10:30:04.002Z,27.30
2018-02-03T10:31:03.897Z,25.20
2018-02-03T10:32:03.916Z,25.40
2018-02-03T10:33:03.851Z,27.10
2018-02-03T10:34:03.925Z,29.10
2018-02-03T10:35:03.793Z,24.80
2018-02-03T10:36:03.837Z,29.50
2018-02-03T10:37:03.752Z,28.70
2018-02-03T10:38:03.751Z,30.40
2018-02-03T10:39:03.703Z,28.30
2018-02-03T10:40:03.782Z,30.30
2018-02-03T10:41:03.650Z,26.20
2018-02-03T10:42:03.674Z,28.10
2018-02-03T10:43:03.598Z,27.60
2018-02-03T10:44:03.590Z,29.40
2018-02-03T10:45:03.547Z,31.60
2018-02-03T10:46:03.603Z,30.50
2018-02-03T10:47:03.496Z,32.10
2018-02-03T10:48:03.530Z,27.40
2018-02-03T10:49:03.442Z,29.90
2018-02-03T10:50:03.528Z,31.00
2018-02-03T10:51:03.394Z,30.90
2018-02-03T10:52:03.454Z,30.90
2018-02-03T10:53:03.388Z,30.70
2018-02-03T10:54:03.354Z,32.10
2018-02-03T10:55:03.307Z,29.40
2018-02-03T10:56:03.369Z,31.50
2018-02-03T10:57:03.235Z,30.70
2018-02-03T10:58:03.204Z,31.00
2018-02-03T10:59:03.178Z,30.50
2018-02-03T11:00:03.191Z,29.60
2018-02-03T11:01:03.127Z,30.50
2018-02-03T11:02:03.201Z,31.40
2018-02-03T11:03:03.070Z,32.70
2018-02-03T11:04:03.112Z,30.70
2018-02-03T11:05:03.162Z,32.40
2018-02-03T11:06:03.129Z,31.30
2018-02-03T11:07:02.961Z,37.50
2018-02-03T11:08:03.040Z,33.00
2018-02-03T11:09:02.908Z,31.60
2018-02-03T11:10:02.958Z,30.70
2018-02-03T11:11:02.852Z,31.70
2018-02-03T11:12:02.964Z,34.10
2018-02-03T11:13:02.797Z,27.10
2018-02-03T11:14:02.876Z,32.00
2018-02-03T11:15:02.752Z,32.60
2018-02-03T11:16:02.797Z,34.00
2018-02-03T11:17:02.688Z,33.90
2018-02-03T11:18:02.796Z,30.50
2018-02-03T11:19:02.635Z,29.90
2018-02-03T11:20:02.713Z,30.00
2018-02-03T11:21:02.578Z,28.20
2018-02-03T11:22:02.623Z,28.50
2018-02-03T11:23:02.518Z,30.70
2018-02-03T11:24:02.641Z,25.20
2018-02-03T11:25:02.471Z,28.30
2018-02-03T11:26:02.554Z,27.90
2018-02-03T11:27:02.413Z,32.30
2018-02-03T11:28:02.461Z,29.60
2018-02-03T11:29:02.358Z,32.30
2018-02-03T11:30:02.475Z,25.80
2018-02-03T11:31:02.301Z,29.30
2018-02-03T11:32:02.391Z,28.10
2018-02-03T11:33:02.250Z,29.90
2018-02-03T11:34:02.300Z,28.20
2018-02-03T11:35:02.192Z,27.70
2018-02-03T11:36:02.311Z,29.00
2018-02-03T11:37:02.138Z,26.90
2018-02-03T11:38:02.223Z,32.40
2018-02-03T11:39:02.079Z,30.00
2018-02-03T11:40:02.143Z,31.10
2018-02-03T11:41:02.025Z,30.80
2018-02-03T11:42:02.151Z,26.40
2018-02-03T11:43:01.996Z,27.30
2018-02-03T11:44:02.062Z,29.60
2018-02-03T11:45:01.939Z,29.40
2018-02-03T11:46:03.018Z,32.20
2018-02-03T11:47:01.884Z,29.80
2018-02-03T11:48:02.034Z,29.40
2018-02-03T11:49:01.812Z,29.20
2018-02-03T11:50:01.900Z,28.90
2018-02-03T11:51:01.748Z,25.70
2018-02-03T11:52:01.808Z,24.60
2018-02-03T11:53:01.693Z,28.10
2018-02-03T11:54:01.821Z,24.90
2018-02-03T11:55:01.638Z,26.80
2018-02-03T11:56:01.733Z,24.40
2018-02-03T11:57:01.580Z,26.50
2018-02-03T11:58:01.644Z,25.40
2018-02-03T11:59:01.523Z,27.30
2018-02-03T12:00:01.660Z,26.20
2018-02-03T12:01:01.472Z,24.60
2018-02-03T12:02:01.574Z,23.10
2018-02-03T12:03:01.413Z,21.50
2018-02-03T12:04:01.483Z,24.70
2018-02-03T12:05:01.356Z,22.90
2018-02-03T12:06:01.464Z,19.90
2018-02-03T12:07:01.323Z,21.40
2018-02-03T12:08:01.409Z,23.00
2018-02-03T12:09:01.242Z,21.30
2018-02-03T12:10:01.317Z,22.70
2018-02-03T12:11:01.191Z,21.70
2018-02-03T12:12:01.406Z,20.10
2018-02-03T12:13:01.132Z,20.20
2018-02-03T12:14:01.247Z,23.50
2018-02-03T12:15:01.074Z,19.30
2018-02-03T12:16:01.157Z,20.00
2018-02-03T12:17:01.021Z,17.80
2018-02-03T12:18:01.171Z,22.20
2018-02-03T12:19:00.963Z,18.80
2018-02-03T12:20:01.085Z,20.50
2018-02-03T12:21:00.926Z,20.20
2018-02-03T12:22:00.995Z,21.70
2018-02-03T12:23:00.852Z,21.30
2018-02-03T12:24:01.007Z,22.20
2018-02-03T12:25:00.797Z,18.50
2018-02-03T12:26:00.919Z,19.00
2018-02-03T12:27:00.742Z,21.80
2018-02-03T12:28:00.831Z,21.20
2018-02-03T12:29:00.688Z,20.70
2018-02-03T12:30:00.853Z,17.00
2018-02-03T12:31:00.648Z,20.20
2018-02-03T12:32:01.309Z,20.60
2018-02-03T12:33:00.582Z,19.50
2018-02-03T12:34:00.676Z,20.10
2018-02-03T12:35:00.516Z,18.40
2018-02-03T12:36:00.604Z,19.20
2018-02-03T12:37:00.461Z,18.50
2018-02-03T12:38:00.439Z,17.80
2018-02-03T12:39:00.503Z,20.10
2018-02-03T12:40:00.376Z,20.30
2018-02-03T12:41:00.414Z,19.20
2018-02-03T12:42:00.328Z,18.10
2018-02-03T12:43:00.325Z,20.40
2018-02-03T12:44:00.288Z,20.30
2018-02-03T12:45:00.332Z,20.70
2018-02-03T12:46:00.212Z,19.80
2018-02-03T12:47:00.247Z,21.70
2018-02-03T12:48:00.164Z,22.00
2018-02-03T12:49:00.161Z,19.00
2018-02-03T12:50:00.306Z,20.10
2018-02-03T12:51:00.169Z,21.30
2018-02-03T12:52:00.039Z,22.00